メインページ
METAR-TAF:

METAR-TAF

空港 :

Powell River, ブリティッシュコロンビア州, カナダ

緯度: 49-50N, 経度: 124-30W, 海抜: 130m

現時点の気象観測

当レポートは59分前の00:00(UTC)に作成
西の風 11kt、最大17ktの突風を伴う、南西から北西の間で変化する
気温 22°C
湿度 50%
気圧 1012 hPa
視程: 48.3km
高度4400ftの雲はほとんどない
高度11000ftの雲はほとんどない
高度25000ftの雲はほとんどない

METAR: CYPW 240000Z 28011G17KT 220V310 30SM FEW044 FEW110 FEW250 22/11 A2989 RMK CU1AC1CI1 CU TR CI TR CONTRAILS SLP123 DENSITY ALT 1400FT

時間: 17:59 (00:59 UTC)


TAF: 見つかりません

4,000以上の空港の気象観測と天気予報(METAR報とTAF報)

利用可能な観測所は地図上に黄色い丸と赤い丸で示す。

丸の上にカーソルを重ねると観測所名を参照できる。

次にクリックすると気象観測と天気予報を参照できる。

マップの切り替え:黒色「×」印の緑ボタンをクリックして拡大、「-」印の緑ボタンをクリックして縮小、緑色の三角印をクリックして隣りの地図に切り替え


METAR-TAF: